createdAt,value
2019-06-01T00:00:29.067Z,51.94
2019-06-01T00:03:03.276Z,56.17
2019-06-01T00:05:36.656Z,57.61
2019-06-01T00:08:09.120Z,60.51
2019-06-01T00:10:47.755Z,62.63
2019-06-01T00:13:20.264Z,64.95
2019-06-01T00:15:58.922Z,64.11
2019-06-01T00:18:32.423Z,64.82
2019-06-01T00:21:04.813Z,65.97
2019-06-01T00:23:37.169Z,65.94
2019-06-01T00:26:13.466Z,66.59
2019-06-01T00:28:45.892Z,66.73
2019-06-01T00:31:19.718Z,66.98
2019-06-01T00:33:52.166Z,67.67
2019-06-01T00:36:24.581Z,68.13
2019-06-01T00:38:56.971Z,68.42
2019-06-01T00:41:35.469Z,68.92
2019-06-01T00:44:07.863Z,69.17
2019-06-01T00:46:42.532Z,69.65
2019-06-01T00:49:16.916Z,69.90
2019-06-01T00:51:52.043Z,68.74
2019-06-01T00:54:26.263Z,65.16
2019-06-01T00:57:00.158Z,67.24
2019-06-01T00:59:32.653Z,66.84
2019-06-01T01:02:05.992Z,65.45
2019-06-01T01:04:38.435Z,67.64
2019-06-01T01:07:10.909Z,66.69
2019-06-01T01:09:50.828Z,66.88
2019-06-01T01:12:24.541Z,67.16
2019-06-01T01:15:00.181Z,66.77
2019-06-01T01:17:32.814Z,67.00
2019-06-01T01:20:12.263Z,68.13
2019-06-01T01:22:46.035Z,67.27
2019-06-01T01:25:18.620Z,67.59
2019-06-01T01:27:50.802Z,67.37
2019-06-01T01:30:26.974Z,67.52
2019-06-01T01:33:03.109Z,67.91
2019-06-01T01:35:35.598Z,68.06
2019-06-01T01:38:08.177Z,68.28
2019-06-01T01:40:42.574Z,68.94
2019-06-01T01:43:15.011Z,69.08
2019-06-01T01:45:48.507Z,69.27
2019-06-01T01:48:24.883Z,69.43
2019-06-01T01:50:58.537Z,69.71
2019-06-01T01:53:31.023Z,69.25
2019-06-01T01:56:07.183Z,69.82
2019-06-01T01:58:40.574Z,70.37
2019-06-01T02:01:22.860Z,70.68
2019-06-01T02:03:53.546Z,70.69
2019-06-01T02:06:29.170Z,70.78
2019-06-01T02:09:02.750Z,70.84
2019-06-01T02:11:36.632Z,70.64
2019-06-01T02:14:09.024Z,70.98
2019-06-01T02:16:45.009Z,70.84
2019-06-01T02:19:17.483Z,70.90
2019-06-01T02:21:49.929Z,71.11
2019-06-01T02:24:25.425Z,70.88
2019-06-01T02:26:59.213Z,71.20
2019-06-01T02:29:37.870Z,70.83
2019-06-01T02:32:10.258Z,70.91
2019-06-01T02:34:42.630Z,71.14
2019-06-01T02:37:18.674Z,71.00
2019-06-01T02:39:56.760Z,70.94
2019-06-01T02:42:34.045Z,71.31
2019-06-01T02:45:13.722Z,71.20
2019-06-01T02:47:47.891Z,71.10
2019-06-01T02:50:24.425Z,71.65
2019-06-01T02:52:58.036Z,71.49
2019-06-01T02:55:31.338Z,71.19
2019-06-01T02:58:04.367Z,71.51
2019-06-01T03:00:48.652Z,71.38
2019-06-01T03:03:21.041Z,71.12
2019-06-01T03:05:59.319Z,71.00
2019-06-01T03:08:34.198Z,71.04
2019-06-01T03:11:14.890Z,71.48
2019-06-01T03:13:49.286Z,71.83
2019-06-01T03:16:24.857Z,72.26
2019-06-01T03:19:00.129Z,72.48
2019-06-01T03:21:33.289Z,72.51
2019-06-01T03:24:08.930Z,72.96
2019-06-01T03:26:46.393Z,72.21
2019-06-01T03:29:20.399Z,72.48
2019-06-01T03:31:53.779Z,72.40
2019-06-01T03:34:26.111Z,72.39
2019-06-01T03:37:02.873Z,72.47
2019-06-01T03:39:41.550Z,72.45
2019-06-01T03:42:13.964Z,71.87
2019-06-01T03:44:46.336Z,71.33
2019-06-01T03:47:18.762Z,71.10
2019-06-01T03:49:54.835Z,70.91
2019-06-01T03:52:30.456Z,70.96
2019-06-01T03:55:03.694Z,70.94
2019-06-01T03:57:42.761Z,70.36
2019-06-01T04:00:21.037Z,70.02
2019-06-01T04:02:57.559Z,69.93
2019-06-01T04:05:30.987Z,69.67
2019-06-01T04:08:07.711Z,69.19
2019-06-01T04:10:40.607Z,69.41
2019-06-01T04:13:14.032Z,68.74
2019-06-01T04:15:47.580Z,68.63
2019-06-01T04:18:20.936Z,69.09
2019-06-01T04:20:56.796Z,68.98
2019-06-01T04:23:30.295Z,68.50
2019-06-01T04:26:04.093Z,67.48
2019-06-01T04:28:36.614Z,64.26
2019-06-01T04:31:10.715Z,64.78
2019-06-01T04:33:45.527Z,62.93
2019-06-01T04:36:22.344Z,61.48
2019-06-01T04:38:54.665Z,59.40
2019-06-01T04:41:27.039Z,57.96
2019-06-01T04:43:59.489Z,54.65
2019-06-01T04:46:38.977Z,50.85
2019-06-01T04:49:15.579Z,48.45
2019-06-01T04:51:47.915Z,47.32
2019-06-01T04:54:23.742Z,43.65
2019-06-01T04:56:56.121Z,42.14
2019-06-01T04:59:31.657Z,42.20
2019-06-01T05:02:05.603Z,43.19
2019-06-01T05:04:38.470Z,44.18
2019-06-01T05:07:13.495Z,42.85
2019-06-01T05:09:47.902Z,42.15
2019-06-01T05:12:27.822Z,42.01
2019-06-01T05:15:00.113Z,42.14
2019-06-01T05:17:32.457Z,41.17
2019-06-01T05:20:06.641Z,40.25
2019-06-01T05:22:39.093Z,41.65
2019-06-01T05:25:13.642Z,46.25
2019-06-01T05:27:49.876Z,44.79
2019-06-01T05:30:22.314Z,44.73
2019-06-01T05:32:54.844Z,40.49
2019-06-01T05:35:27.164Z,37.12
2019-06-01T05:37:59.470Z,36.59
2019-06-01T05:40:31.904Z,37.21
2019-06-01T05:43:10.655Z,37.36
2019-06-01T05:45:41.419Z,36.34
2019-06-01T05:48:20.788Z,36.78
2019-06-01T05:50:49.419Z,37.44
2019-06-01T05:53:23.050Z,36.83
2019-06-01T05:55:57.828Z,35.21
2019-06-01T05:58:29.446Z,35.07
2019-06-01T06:01:01.598Z,34.82
2019-06-01T06:03:40.606Z,36.13
2019-06-01T06:06:12.029Z,34.85
2019-06-01T06:08:44.352Z,35.69
2019-06-01T06:11:19.045Z,36.31
2019-06-01T06:13:56.798Z,38.52
2019-06-01T06:16:35.945Z,40.62
2019-06-01T06:19:08.374Z,38.49
2019-06-01T06:21:40.748Z,38.89
2019-06-01T06:24:16.529Z,41.05
2019-06-01T06:26:56.839Z,37.01
2019-06-01T06:29:30.505Z,37.26
2019-06-01T06:32:02.966Z,36.30
2019-06-01T06:34:47.902Z,37.53
2019-06-01T06:37:20.254Z,36.95
2019-06-01T06:39:54.842Z,37.31
2019-06-01T06:42:31.056Z,35.97
2019-06-01T06:45:06.525Z,35.50
2019-06-01T06:47:40.368Z,36.76
2019-06-01T06:50:16.453Z,36.01
2019-06-01T06:52:49.910Z,34.22
2019-06-01T06:55:22.234Z,35.38
2019-06-01T06:57:54.718Z,33.52
2019-06-01T07:00:28.937Z,36.66
2019-06-01T07:03:02.279Z,36.64
2019-06-01T07:05:41.800Z,36.58
2019-06-01T07:08:14.939Z,35.90
2019-06-01T07:10:47.299Z,35.21
2019-06-01T07:13:21.291Z,34.11
2019-06-01T07:15:53.682Z,34.50
2019-06-01T07:18:26.140Z,31.33
2019-06-01T07:21:02.192Z,30.73
2019-06-01T07:23:41.731Z,32.25
2019-06-01T07:26:19.906Z,32.60
2019-06-01T07:28:53.801Z,31.37
2019-06-01T07:31:32.508Z,33.49
2019-06-01T07:34:04.866Z,30.79
2019-06-01T07:39:36.306Z,30.01
2019-06-01T07:42:15.202Z,29.19
2019-06-01T07:44:48.573Z,30.67
2019-06-01T07:47:22.768Z,28.25
2019-06-01T07:50:00.245Z,30.09
2019-06-01T07:52:32.593Z,28.48
2019-06-01T07:55:10.915Z,28.27
2019-06-01T07:57:47.282Z,29.97
2019-06-01T08:03:48.840Z,31.03
2019-06-01T08:06:23.976Z,29.86
2019-06-01T08:08:59.367Z,30.45
2019-06-01T08:11:33.521Z,28.67
2019-06-01T08:14:11.879Z,29.50
2019-06-01T08:16:51.486Z,30.53
2019-06-01T08:19:32.082Z,31.26
2019-06-01T08:22:04.808Z,29.49
2019-06-01T08:24:44.128Z,28.96
2019-06-01T08:27:22.433Z,30.78
2019-06-01T08:29:55.297Z,32.33
2019-06-01T08:32:30.982Z,32.83
2019-06-01T08:35:08.974Z,32.81
2019-06-01T08:37:42.781Z,34.82
2019-06-01T08:40:18.245Z,32.25
2019-06-01T08:42:52.506Z,33.00
2019-06-01T08:45:27.653Z,33.27
2019-06-01T08:48:00.119Z,32.31
2019-06-01T08:50:32.557Z,32.35
2019-06-01T08:53:12.247Z,33.33
2019-06-01T08:55:48.052Z,32.98
2019-06-01T08:58:20.644Z,32.33
2019-06-01T09:00:53.029Z,32.84
2019-06-01T09:03:33.790Z,32.82
2019-06-01T09:06:05.307Z,33.19
2019-06-01T09:08:41.212Z,33.04
2019-06-01T09:11:15.499Z,34.28
2019-06-01T09:13:52.291Z,33.50
2019-06-01T09:16:25.503Z,32.32
2019-06-01T09:19:03.503Z,32.07
2019-06-01T09:21:48.329Z,33.16
2019-06-01T09:24:53.564Z,34.26
2019-06-01T09:27:40.795Z,33.67
2019-06-01T09:30:14.730Z,34.11
2019-06-01T09:32:49.313Z,34.93
2019-06-01T09:35:22.615Z,34.71
2019-06-01T09:37:54.880Z,35.40
2019-06-01T09:40:29.968Z,35.04
2019-06-01T09:43:03.838Z,34.47
2019-06-01T09:45:53.355Z,34.76
2019-06-01T09:48:29.361Z,35.75
2019-06-01T09:51:02.387Z,35.21
2019-06-01T09:53:38.967Z,36.27
2019-06-01T09:56:12.516Z,34.77
2019-06-01T09:58:48.237Z,35.67
2019-06-01T10:01:23.294Z,35.47
2019-06-01T10:07:46.834Z,35.65
2019-06-01T10:10:23.324Z,35.83
2019-06-01T10:12:59.793Z,35.83
2019-06-01T10:15:38.565Z,36.13
2019-06-01T10:18:13.782Z,36.91
2019-06-01T10:21:06.960Z,36.76
2019-06-01T10:23:48.664Z,35.86
2019-06-01T10:26:17.729Z,37.24
2019-06-01T10:28:51.895Z,36.92
2019-06-01T10:31:24.798Z,36.34
2019-06-01T10:34:01.591Z,36.53
2019-06-01T10:36:44.996Z,36.30
2019-06-01T10:39:21.766Z,36.69
2019-06-01T10:41:54.789Z,36.53
2019-06-01T10:44:29.394Z,36.42
2019-06-01T10:47:03.582Z,37.03
2019-06-01T10:49:38.587Z,37.03
2019-06-01T10:52:16.883Z,36.18
2019-06-01T10:55:01.828Z,36.01
2019-06-01T10:57:44.126Z,34.95
2019-06-01T11:00:50.549Z,35.26
2019-06-01T11:03:44.377Z,35.65
2019-06-01T11:09:48.253Z,35.08
2019-06-01T11:12:36.848Z,34.80
2019-06-01T11:15:17.079Z,35.51
2019-06-01T11:18:23.707Z,35.51
2019-06-01T11:24:29.584Z,35.43
2019-06-01T11:27:15.943Z,34.79
2019-06-01T11:29:51.710Z,34.61
2019-06-01T11:32:36.022Z,34.06
2019-06-01T11:35:22.260Z,34.10
2019-06-01T11:37:57.994Z,33.94
2019-06-01T11:40:31.778Z,33.28
2019-06-01T11:43:04.531Z,33.25
2019-06-01T11:45:40.864Z,33.03
2019-06-01T11:54:41.203Z,32.38
2019-06-01T11:57:23.724Z,31.79
2019-06-01T12:00:00.511Z,30.97
2019-06-01T12:02:47.656Z,30.91
2019-06-01T12:05:29.641Z,31.21
2019-06-01T12:30:35.919Z,30.20
2019-06-01T12:57:57.685Z,30.37
2019-06-01T13:01:03.937Z,29.54
2019-06-01T13:03:45.262Z,30.51
2019-06-01T13:06:27.544Z,31.43
2019-06-01T13:18:25.004Z,29.61
2019-06-01T13:24:43.545Z,30.70
2019-06-01T13:27:32.882Z,30.27
2019-06-01T13:33:44.386Z,29.73
2019-06-01T13:36:44.665Z,28.99
2019-06-01T13:40:05.694Z,30.17
2019-06-01T13:52:19.442Z,31.27
2019-06-01T13:54:58.497Z,30.70
2019-06-01T13:57:33.582Z,30.29
2019-06-01T14:00:09.780Z,29.83
2019-06-01T14:02:48.596Z,29.75
2019-06-01T14:05:17.670Z,30.44
2019-06-01T14:07:55.721Z,29.93
2019-06-01T14:10:36.801Z,30.43
2019-06-01T14:13:12.020Z,30.71
2019-06-01T14:15:47.403Z,30.20
2019-06-01T14:18:21.576Z,29.99
2019-06-01T14:20:55.889Z,29.83
2019-06-01T14:23:30.404Z,29.63
2019-06-01T14:26:09.271Z,29.43
2019-06-01T14:28:41.763Z,30.69
2019-06-01T14:31:21.544Z,30.20
2019-06-01T14:34:02.987Z,30.38
2019-06-01T14:36:39.817Z,30.73
2019-06-01T14:39:23.456Z,30.67
2019-06-01T14:41:58.990Z,30.63
2019-06-01T14:44:31.777Z,31.17
2019-06-01T14:47:06.313Z,30.96
2019-06-01T14:49:45.103Z,30.58
2019-06-01T14:52:17.673Z,30.53
2019-06-01T14:54:55.893Z,30.27
2019-06-01T14:57:35.371Z,30.43
2019-06-01T15:00:21.404Z,31.17
2019-06-01T15:02:59.056Z,31.86
2019-06-01T15:05:32.325Z,31.31
2019-06-01T15:08:08.072Z,32.80
2019-06-01T15:10:50.730Z,32.79
2019-06-01T15:13:33.773Z,34.76
2019-06-01T15:16:24.587Z,36.80
2019-06-01T15:18:58.999Z,39.59
2019-06-01T15:21:33.369Z,41.55
2019-06-01T15:24:13.364Z,42.20
2019-06-01T15:26:59.032Z,42.69
2019-06-01T15:29:41.871Z,42.96
2019-06-01T15:32:14.497Z,43.55
2019-06-01T15:34:56.690Z,43.76
2019-06-01T15:37:30.781Z,43.80
2019-06-01T15:40:12.764Z,43.64
2019-06-01T15:42:46.487Z,43.52
2019-06-01T15:45:24.622Z,43.84
2019-06-01T15:47:59.901Z,43.94
2019-06-01T15:50:36.203Z,44.13
2019-06-01T15:53:08.850Z,44.98
2019-06-01T15:55:41.558Z,45.24
2019-06-01T15:58:19.109Z,46.06
2019-06-01T16:00:54.935Z,46.10
2019-06-01T16:03:34.433Z,46.13
2019-06-01T16:06:13.929Z,46.40
2019-06-01T16:08:53.266Z,46.83
2019-06-01T16:11:35.850Z,47.20
2019-06-01T16:14:11.271Z,47.61
2019-06-01T16:16:44.897Z,48.14
2019-06-01T16:19:18.371Z,48.36
2019-06-01T16:21:50.979Z,48.46
2019-06-01T16:24:44.951Z,48.74
2019-06-01T16:27:30.596Z,49.23
2019-06-01T16:30:09.609Z,49.12
2019-06-01T16:32:50.682Z,48.82
2019-06-01T16:35:26.888Z,49.13
2019-06-01T16:38:04.512Z,49.46
2019-06-01T16:40:39.363Z,49.94
2019-06-01T16:43:17.827Z,50.04
2019-06-01T16:45:52.506Z,50.34
2019-06-01T16:48:31.876Z,50.46
2019-06-01T16:51:06.771Z,50.99
2019-06-01T16:53:46.479Z,51.17
2019-06-01T16:56:20.986Z,51.32
2019-06-01T16:58:58.163Z,51.29
2019-06-01T17:01:30.960Z,51.52
2019-06-01T17:04:06.655Z,52.06
2019-06-01T17:06:40.415Z,52.05
2019-06-01T17:09:18.614Z,52.35
2019-06-01T17:11:53.036Z,52.29
2019-06-01T17:14:26.429Z,52.06
2019-06-01T17:17:01.068Z,51.95
2019-06-01T17:19:41.795Z,51.70
2019-06-01T17:22:15.531Z,52.27
2019-06-01T17:24:51.452Z,52.05
2019-06-01T17:27:29.447Z,52.17
2019-06-01T17:30:09.958Z,52.12
2019-06-01T17:32:46.798Z,52.25
2019-06-01T17:35:25.224Z,52.34
2019-06-01T17:38:00.690Z,52.86
2019-06-01T17:43:29.036Z,53.46
2019-06-01T17:46:05.679Z,53.71
2019-06-01T17:48:41.463Z,53.38
2019-06-01T17:51:14.107Z,53.35
2019-06-01T17:53:48.942Z,53.11
2019-06-01T17:56:25.251Z,52.99
2019-06-01T17:59:01.273Z,52.92
2019-06-01T18:01:42.104Z,53.08
2019-06-01T18:04:20.962Z,53.05
2019-06-01T18:06:54.777Z,53.23
2019-06-01T18:09:27.651Z,53.40
2019-06-01T18:12:01.978Z,53.61
2019-06-01T18:14:38.176Z,53.90
2019-06-01T18:17:14.486Z,54.36
2019-06-01T18:19:49.677Z,54.76
2019-06-01T18:22:23.664Z,55.05
2019-06-01T18:25:04.514Z,55.27
2019-06-01T18:27:37.513Z,55.76
2019-06-01T18:30:12.729Z,55.31
2019-06-01T18:32:50.075Z,55.15
2019-06-01T18:35:38.319Z,55.26
2019-06-01T18:38:15.100Z,55.29
2019-06-01T18:40:50.530Z,55.57
2019-06-01T18:50:17.437Z,56.13
2019-06-01T18:52:51.764Z,56.12
2019-06-01T18:55:29.178Z,55.99
2019-06-01T18:58:12.432Z,56.64
2019-06-01T19:00:48.767Z,56.76
2019-06-01T19:03:21.400Z,56.53
2019-06-01T19:06:01.679Z,56.51
2019-06-01T19:08:36.320Z,56.37
2019-06-01T19:11:27.426Z,56.59
2019-06-01T19:13:45.094Z,56.42
2019-06-01T19:19:14.609Z,56.71
2019-06-01T19:21:48.135Z,56.52
2019-06-01T19:24:26.578Z,56.13
2019-06-01T19:27:06.674Z,55.65
2019-06-01T19:29:44.413Z,55.81
2019-06-01T19:32:21.033Z,56.77
2019-06-01T19:34:51.825Z,56.67
2019-06-01T19:37:29.144Z,56.30
2019-06-01T19:40:11.279Z,56.97
2019-06-01T19:42:50.737Z,56.97
2019-06-01T19:45:29.120Z,55.84
2019-06-01T19:47:58.744Z,56.00
2019-06-01T19:50:32.295Z,56.24
2019-06-01T19:53:05.491Z,56.96
2019-06-01T19:55:39.094Z,56.59
2019-06-01T19:58:14.146Z,56.22
2019-06-01T20:00:50.714Z,55.25
2019-06-01T20:03:25.215Z,55.71
2019-06-01T20:06:05.681Z,56.59
2019-06-01T20:08:37.921Z,55.32
2019-06-01T20:11:11.171Z,55.95
2019-06-01T20:13:47.822Z,56.27
2019-06-01T20:16:22.711Z,55.96
2019-06-01T20:18:57.157Z,57.47
2019-06-01T20:21:34.329Z,59.02
2019-06-01T20:24:07.206Z,60.53
2019-06-01T20:26:48.801Z,60.70
2019-06-01T20:29:17.588Z,61.61
2019-06-01T20:31:50.563Z,62.26
2019-06-01T20:34:24.490Z,63.10
2019-06-01T20:36:58.125Z,64.50
2019-06-01T20:39:31.751Z,66.80
2019-06-01T20:42:20.263Z,67.84
2019-06-01T20:44:41.466Z,68.25
2019-06-01T20:47:18.949Z,69.44
2019-06-01T20:49:52.625Z,70.46
2019-06-01T20:52:25.322Z,70.44
2019-06-01T20:54:57.976Z,71.38
2019-06-01T20:57:30.606Z,72.55
2019-06-01T21:00:03.983Z,72.77
2019-06-01T21:02:39.179Z,73.50
2019-06-01T21:05:13.740Z,73.99
2019-06-01T21:07:57.218Z,75.55
2019-06-01T21:10:30.374Z,76.37
2019-06-01T21:13:03.063Z,76.33
2019-06-01T21:15:37.729Z,76.43
2019-06-01T21:18:16.272Z,76.32
2019-06-01T21:20:50.039Z,76.57
2019-06-01T21:23:25.143Z,77.11
2019-06-01T21:25:58.279Z,77.07
2019-06-01T21:28:32.275Z,76.65
2019-06-01T21:31:11.538Z,75.96
2019-06-01T21:33:45.905Z,75.63
2019-06-01T21:36:32.146Z,76.91
2019-06-01T21:39:10.514Z,76.68
2019-06-01T21:41:46.068Z,76.81
2019-06-01T21:44:20.234Z,75.92
2019-06-01T21:46:53.376Z,76.10
2019-06-01T21:52:22.119Z,76.55
2019-06-01T21:54:57.362Z,75.50
2019-06-01T21:57:30.180Z,75.43
2019-06-01T22:00:14.798Z,75.12
2019-06-01T22:02:55.083Z,75.16
2019-06-01T22:05:27.954Z,74.92
2019-06-01T22:08:12.438Z,74.54
2019-06-01T22:10:45.177Z,74.18
2019-06-01T22:13:22.327Z,73.71
2019-06-01T22:15:55.784Z,73.54
2019-06-01T22:18:32.043Z,73.47
2019-06-01T22:21:06.551Z,73.61
2019-06-01T22:23:42.229Z,71.59
2019-06-01T22:26:19.849Z,71.35
2019-06-01T22:28:58.376Z,72.01
2019-06-01T22:31:30.864Z,72.31
2019-06-01T22:34:09.431Z,71.77
2019-06-01T22:37:03.366Z,71.72
2019-06-01T22:39:37.910Z,71.10
2019-06-01T22:42:14.752Z,70.02
2019-06-01T22:44:56.309Z,70.52
2019-06-01T22:47:29.096Z,70.76
2019-06-01T22:50:02.138Z,71.03
2019-06-01T22:52:34.922Z,71.03
2019-06-01T22:55:10.648Z,71.12
2019-06-01T22:57:44.863Z,71.43
2019-06-01T23:00:19.411Z,71.10
2019-06-01T23:02:51.969Z,70.84
2019-06-01T23:05:25.108Z,71.42
2019-06-01T23:07:58.877Z,71.37
2019-06-01T23:10:35.425Z,71.29
2019-06-01T23:13:08.754Z,71.16
2019-06-01T23:15:45.996Z,71.06
2019-06-01T23:18:19.876Z,71.68
2019-06-01T23:20:52.512Z,71.59
2019-06-01T23:23:25.994Z,71.72
2019-06-01T23:25:58.813Z,71.65
2019-06-01T23:28:32.615Z,71.88
2019-06-01T23:31:10.221Z,72.36
2019-06-01T23:33:43.715Z,71.96
2019-06-01T23:36:24.566Z,71.71
2019-06-01T23:38:58.366Z,71.53
2019-06-01T23:41:35.993Z,71.14
2019-06-01T23:44:12.301Z,71.20
2019-06-01T23:46:45.521Z,71.62
2019-06-01T23:49:19.045Z,71.97
2019-06-01T23:51:53.329Z,72.13
2019-06-01T23:54:27.642Z,72.41
2019-06-01T23:57:00.278Z,72.36
2019-06-01T23:59:34.375Z,72.34
